createdAt,value
2018-05-29T00:01:15.270Z,16.60
2018-05-29T00:05:17.790Z,16.13
2018-05-29T00:09:21.093Z,18.33
2018-05-29T00:13:24.391Z,16.67
2018-05-29T00:17:26.939Z,18.30
2018-05-29T00:21:29.485Z,17.00
2018-05-29T00:25:32.023Z,16.47
2018-05-29T00:29:34.558Z,16.97
2018-05-29T00:33:37.118Z,18.20
2018-05-29T00:37:40.440Z,17.87
2018-05-29T00:41:42.996Z,18.73
2018-05-29T00:45:45.524Z,18.70
2018-05-29T00:49:48.064Z,18.00
2018-05-29T00:53:50.663Z,17.90
2018-05-29T00:57:53.959Z,17.40
2018-05-29T01:01:57.388Z,17.63
2018-05-29T01:06:11.337Z,17.23
2018-05-29T01:14:24.726Z,18.30
2018-05-29T01:18:27.263Z,18.03
2018-05-29T01:22:29.807Z,17.40
2018-05-29T01:26:32.367Z,17.97
2018-05-29T01:30:34.892Z,18.93
2018-05-29T01:34:37.435Z,20.53
2018-05-29T01:38:39.987Z,21.00
2018-05-29T01:42:42.543Z,21.37
2018-05-29T01:46:45.089Z,22.07
2018-05-29T01:50:48.375Z,22.63
2018-05-29T01:54:51.681Z,20.90
2018-05-29T01:58:54.988Z,21.27
2018-05-29T02:02:57.530Z,20.20
2018-05-29T02:07:00.068Z,20.73
2018-05-29T02:11:02.591Z,20.67
2018-05-29T02:15:05.137Z,20.20
2018-05-29T02:19:07.690Z,19.97
2018-05-29T02:23:10.218Z,20.30
2018-05-29T02:27:12.756Z,20.03
2018-05-29T02:31:15.275Z,21.70
2018-05-29T02:35:17.828Z,21.60
2018-05-29T02:39:20.359Z,21.50
2018-05-29T02:43:23.667Z,20.83
2018-05-29T02:47:26.521Z,19.83
2018-05-29T02:51:29.812Z,19.80
2018-05-29T02:55:32.346Z,20.83
2018-05-29T02:59:34.894Z,20.63
2018-05-29T03:03:37.463Z,20.33
2018-05-29T03:07:40.004Z,21.47
2018-05-29T03:11:42.524Z,21.20
2018-05-29T03:15:45.064Z,20.37
2018-05-29T03:19:47.616Z,20.97
2018-05-29T03:23:50.923Z,21.47
2018-05-29T03:27:54.225Z,20.87
2018-05-29T03:31:56.763Z,21.33
2018-05-29T03:35:59.296Z,21.27
2018-05-29T03:40:02.606Z,21.93
2018-05-29T03:44:05.912Z,21.30
2018-05-29T03:48:08.455Z,22.70
2018-05-29T03:52:10.994Z,21.00
2018-05-29T03:56:13.512Z,22.10
2018-05-29T04:00:16.055Z,20.93
2018-05-29T04:04:18.593Z,22.03
2018-05-29T04:08:21.135Z,23.00
2018-05-29T04:12:25.268Z,23.00
2018-05-29T04:16:27.795Z,21.10
2018-05-29T04:20:30.339Z,21.70
2018-05-29T04:24:32.896Z,20.43
2018-05-29T04:28:36.201Z,21.33
2018-05-29T04:32:39.504Z,20.60
2018-05-29T04:36:42.787Z,21.33
2018-05-29T04:40:45.355Z,21.03
2018-05-29T04:44:47.900Z,20.07
2018-05-29T04:48:51.208Z,20.70
2018-05-29T04:52:53.752Z,19.57
2018-05-29T04:56:57.056Z,19.90
2018-05-29T05:01:00.366Z,19.53
2018-05-29T05:05:03.676Z,20.47
2018-05-29T05:09:06.219Z,19.87
2018-05-29T05:13:08.758Z,19.57
2018-05-29T05:17:11.274Z,19.37
2018-05-29T05:21:13.814Z,19.53
2018-05-29T05:25:17.117Z,19.67
2018-05-29T05:29:19.655Z,18.43
2018-05-29T05:33:22.204Z,20.23
2018-05-29T05:37:24.723Z,18.53
2018-05-29T05:41:27.259Z,17.50
2018-05-29T05:45:29.808Z,17.90
2018-05-29T05:49:32.411Z,17.43
2018-05-29T05:53:35.895Z,17.27
2018-05-29T05:57:38.473Z,17.60
2018-05-29T06:01:41.027Z,17.57
2018-05-29T06:05:43.599Z,17.67
2018-05-29T06:09:46.135Z,17.50
2018-05-29T06:13:48.682Z,16.33
2018-05-29T06:17:51.223Z,17.67
2018-05-29T06:21:53.752Z,16.50
2018-05-29T06:25:56.308Z,16.93
2018-05-29T06:29:59.616Z,16.80
2018-05-29T06:34:02.927Z,16.83
2018-05-29T06:38:05.474Z,16.63
2018-05-29T06:42:07.997Z,17.00
2018-05-29T06:46:10.548Z,17.47
2018-05-29T06:50:13.092Z,17.20
2018-05-29T06:54:15.636Z,16.33
2018-05-29T06:58:18.948Z,15.80
2018-05-29T07:02:21.470Z,16.67
2018-05-29T07:06:24.036Z,15.90
2018-05-29T07:10:26.588Z,15.93
2018-05-29T07:14:29.930Z,15.70
2018-05-29T07:18:32.461Z,15.30
2018-05-29T07:22:34.987Z,16.20
2018-05-29T07:26:37.529Z,15.17
2018-05-29T07:30:41.328Z,15.53
2018-05-29T07:34:43.889Z,16.23
2018-05-29T07:38:46.431Z,16.43
2018-05-29T07:42:49.720Z,14.67
2018-05-29T07:46:52.260Z,15.30
2018-05-29T07:50:54.799Z,14.23
2018-05-29T07:54:58.112Z,16.20
2018-05-29T07:59:01.422Z,14.60
2018-05-29T08:03:03.958Z,15.23
2018-05-29T08:07:06.504Z,16.13
2018-05-29T08:11:09.052Z,15.43
2018-05-29T08:15:11.590Z,15.33
2018-05-29T08:19:14.917Z,14.97
2018-05-29T08:23:17.446Z,13.37
2018-05-29T08:27:20.754Z,13.53
2018-05-29T08:31:24.083Z,13.00
2018-05-29T08:35:26.624Z,12.47
2018-05-29T08:39:29.973Z,13.13
2018-05-29T08:43:32.531Z,13.57
2018-05-29T08:47:35.824Z,12.40
2018-05-29T08:51:39.184Z,10.67
2018-05-29T08:55:41.725Z,10.97
2018-05-29T08:59:45.033Z,10.50
2018-05-29T09:03:47.575Z,11.73
2018-05-29T09:07:50.118Z,10.90
2018-05-29T09:11:52.723Z,10.70
2018-05-29T09:15:55.235Z,9.50
2018-05-29T09:19:57.823Z,9.97
2018-05-29T09:24:00.356Z,9.47
2018-05-29T09:28:02.888Z,8.70
2018-05-29T09:32:05.428Z,9.07
2018-05-29T09:40:15.484Z,8.43
2018-05-29T09:44:18.787Z,7.90
2018-05-29T09:48:22.125Z,7.70
2018-05-29T09:52:25.406Z,8.40
2018-05-29T09:56:27.953Z,8.00
2018-05-29T10:00:36.210Z,7.35
2018-05-29T10:04:38.747Z,8.57
2018-05-29T10:08:41.274Z,8.23
2018-05-29T10:12:43.827Z,7.93
2018-05-29T10:16:47.794Z,7.85
2018-05-29T10:20:50.356Z,8.98
2018-05-29T10:24:53.655Z,8.65
2018-05-29T10:28:56.939Z,8.32
2018-05-29T10:33:00.640Z,9.18
2018-05-29T10:37:03.986Z,9.88
2018-05-29T10:41:06.686Z,9.65
2018-05-29T10:45:09.223Z,9.18
2018-05-29T10:49:11.789Z,8.50
2018-05-29T10:53:14.307Z,8.43
2018-05-29T10:57:17.615Z,8.10
2018-05-29T11:01:20.922Z,8.45
2018-05-29T11:05:24.220Z,7.78
2018-05-29T11:09:27.518Z,7.82
2018-05-29T11:13:30.036Z,7.45
2018-05-29T11:17:32.598Z,7.25
2018-05-29T11:21:35.137Z,6.53
2018-05-29T11:25:37.706Z,6.00
2018-05-29T11:29:40.248Z,5.20
2018-05-29T11:33:43.535Z,5.62
2018-05-29T11:37:46.110Z,5.07
2018-05-29T11:41:48.648Z,5.28
2018-05-29T11:45:51.204Z,5.72
2018-05-29T11:49:54.512Z,5.72
2018-05-29T11:53:57.795Z,5.90
2018-05-29T11:58:00.436Z,6.03
2018-05-29T12:02:02.971Z,5.78
2018-05-29T12:06:05.515Z,6.18
2018-05-29T12:10:08.047Z,5.70
2018-05-29T12:14:11.347Z,5.93
2018-05-29T12:18:13.888Z,6.15
2018-05-29T12:22:16.468Z,6.55
2018-05-29T12:26:18.977Z,6.57
2018-05-29T12:30:21.507Z,6.80
2018-05-29T12:34:24.816Z,6.18
2018-05-29T12:38:28.098Z,6.00
2018-05-29T12:42:30.631Z,6.20
2018-05-29T12:46:33.167Z,6.25
2018-05-29T12:50:36.462Z,6.20
2018-05-29T12:54:38.975Z,5.87
2018-05-29T12:58:41.504Z,6.18
2018-05-29T13:02:44.053Z,5.82
2018-05-29T13:06:46.603Z,5.72
2018-05-29T13:10:49.933Z,6.03
2018-05-29T13:14:52.467Z,6.32
2018-05-29T14:36:27.122Z,6.55
2018-05-29T14:40:29.659Z,6.22
2018-05-29T14:44:32.177Z,6.40
2018-05-29T14:48:34.715Z,6.05
2018-05-29T14:52:37.256Z,6.03
2018-05-29T14:56:39.791Z,6.30
2018-05-29T15:00:42.326Z,6.30
2018-05-29T15:04:44.879Z,5.95
2018-05-29T15:08:47.411Z,6.25
2018-05-29T15:12:50.720Z,5.97
2018-05-29T15:16:54.020Z,6.40
2018-05-29T15:20:57.325Z,6.57
2018-05-29T15:25:00.639Z,6.72
2018-05-29T15:29:03.938Z,6.60
2018-05-29T15:33:06.480Z,6.70
2018-05-29T15:37:09.023Z,6.50
2018-05-29T15:41:11.559Z,6.25
2018-05-29T15:45:14.120Z,5.87
2018-05-29T15:49:16.655Z,5.93
2018-05-29T15:53:19.953Z,6.55
2018-05-29T15:57:22.504Z,6.60
2018-05-29T16:01:25.043Z,6.85
2018-05-29T16:05:27.582Z,6.55
2018-05-29T16:09:30.110Z,6.62
2018-05-29T16:13:35.069Z,6.75
2018-05-29T16:17:37.614Z,7.35
2018-05-29T16:21:40.165Z,7.28
2018-05-29T16:25:42.743Z,7.75
2018-05-29T16:29:45.492Z,7.93
2018-05-29T16:33:48.033Z,7.50
2018-05-29T16:37:50.574Z,7.85
2018-05-29T16:41:53.117Z,7.68
2018-05-29T16:45:56.446Z,7.95
2018-05-29T16:49:59.731Z,7.95
2018-05-29T16:54:03.051Z,8.07
2018-05-29T16:58:05.609Z,8.27
2018-05-29T17:02:08.153Z,8.00
2018-05-29T17:06:11.451Z,7.62
2018-05-29T17:10:13.968Z,7.78
2018-05-29T17:14:16.508Z,7.18
2018-05-29T17:18:19.048Z,7.12
2018-05-29T17:22:24.220Z,7.57
2018-05-29T17:26:27.572Z,8.18
2018-05-29T17:30:30.100Z,8.25
2018-05-29T17:34:33.415Z,7.95
2018-05-29T17:38:36.717Z,8.45
2018-05-29T17:42:40.015Z,8.32
2018-05-29T17:46:43.320Z,8.25
2018-05-29T17:50:46.603Z,8.13
2018-05-29T17:54:49.139Z,8.43
2018-05-29T17:58:51.684Z,7.65
2018-05-29T18:02:54.235Z,7.30
2018-05-29T18:06:56.772Z,7.18
2018-05-29T18:10:59.290Z,7.72
2018-05-29T18:15:01.845Z,7.62
2018-05-29T18:19:04.475Z,8.27
2018-05-29T18:23:07.038Z,8.88
2018-05-29T18:27:09.588Z,9.00
2018-05-29T18:31:12.182Z,9.63
2018-05-29T18:35:14.684Z,10.43
2018-05-29T18:39:17.226Z,8.85
2018-05-29T18:43:19.772Z,15.57
2018-05-29T18:47:22.316Z,11.57
2018-05-29T18:51:25.603Z,10.37
2018-05-29T18:55:28.920Z,10.27
2018-05-29T18:59:32.219Z,10.63
2018-05-29T19:03:35.571Z,9.60
2018-05-29T19:07:38.079Z,9.77
2018-05-29T19:11:40.617Z,8.50
2018-05-29T19:15:43.143Z,8.83
2018-05-29T19:19:45.687Z,8.50
2018-05-29T19:23:48.220Z,8.40
2018-05-29T19:27:54.734Z,7.80
2018-05-29T19:31:57.287Z,7.53
2018-05-29T19:35:59.827Z,7.10
2018-05-29T19:40:02.383Z,7.23
2018-05-29T19:44:05.691Z,7.60
2018-05-29T19:48:08.230Z,7.77
2018-05-29T19:52:10.767Z,7.73
2018-05-29T19:56:13.293Z,8.30
2018-05-29T20:00:15.853Z,7.83
2018-05-29T20:04:18.403Z,8.13
2018-05-29T20:08:21.707Z,8.67
2018-05-29T20:12:25.020Z,9.73
2018-05-29T20:16:27.540Z,8.83
2018-05-29T20:20:30.088Z,9.20
2018-05-29T20:24:33.387Z,9.20
2018-05-29T20:28:36.690Z,8.83
2018-05-29T20:32:39.992Z,8.57
2018-05-29T20:36:43.329Z,9.40
2018-05-29T20:40:45.871Z,8.93
2018-05-29T20:44:49.167Z,8.47
2018-05-29T20:48:51.703Z,8.47
2018-05-29T20:52:54.257Z,8.13
2018-05-29T20:56:57.555Z,8.63
2018-05-29T21:01:00.915Z,7.87
2018-05-29T21:05:03.419Z,9.00
2018-05-29T21:09:05.955Z,8.50
2018-05-29T21:13:08.509Z,8.87
2018-05-29T21:17:11.795Z,9.90
2018-05-29T21:21:15.109Z,8.23
2018-05-29T21:25:17.686Z,10.10
2018-05-29T21:29:20.223Z,10.67
2018-05-29T21:33:22.765Z,11.63
2018-05-29T21:37:26.049Z,11.33
2018-05-29T21:41:28.626Z,10.73
2018-05-29T21:45:31.299Z,9.27
2018-05-29T21:49:33.833Z,12.77
2018-05-29T21:53:36.412Z,11.80
2018-05-29T21:57:38.915Z,8.43
2018-05-29T22:01:42.211Z,9.60
2018-05-29T22:05:45.517Z,10.00
2018-05-29T22:09:48.814Z,9.53
2018-05-29T22:13:52.156Z,8.97
2018-05-29T22:17:54.700Z,8.23
2018-05-29T22:21:58.009Z,8.27
2018-05-29T22:26:00.560Z,8.30
2018-05-29T22:30:03.096Z,8.47
2018-05-29T22:34:05.733Z,8.10
2018-05-29T22:38:08.243Z,9.50
2018-05-29T22:42:11.548Z,10.40
2018-05-29T22:46:14.851Z,10.80
2018-05-29T22:50:18.159Z,10.70
2018-05-29T22:54:21.464Z,11.27
2018-05-29T22:58:24.750Z,11.30
2018-05-29T23:02:27.291Z,11.50
2018-05-29T23:06:29.822Z,12.43
2018-05-29T23:10:33.143Z,12.83
2018-05-29T23:14:35.716Z,12.60
2018-05-29T23:18:39.002Z,12.63
2018-05-29T23:22:41.622Z,12.23
2018-05-29T23:26:44.164Z,12.80
2018-05-29T23:30:46.707Z,13.20
2018-05-29T23:34:49.248Z,13.27
2018-05-29T23:38:51.767Z,12.67
2018-05-29T23:42:54.303Z,13.00
2018-05-29T23:46:56.848Z,13.43
2018-05-29T23:50:59.391Z,13.03
2018-05-29T23:55:02.699Z,12.73
2018-05-29T23:59:05.991Z,14.23
